TimeEDT,TemperatureF,Dew PointF,Humidity,Sea Level PressureIn,VisibilityMPH,Wind Direction,Wind SpeedMPH,Gust SpeedMPH,PrecipitationIn,Events,Conditions,WindDirDegrees,DateUTC
12:53 AM,84.9,73.9,69,30.07,10.0,ESE,9.2,17.3,N/A,,Partly Cloudy,120,2013-06-23 04:53:00
1:53 AM,84.9,73.0,67,30.06,10.0,ESE,9.2,-,N/A,,Partly Cloudy,120,2013-06-23 05:53:00
2:53 AM,84.9,73.0,67,30.04,10.0,ESE,9.2,-,N/A,,Scattered Clouds,120,2013-06-23 06:53:00
3:53 AM,84.0,73.0,69,30.03,10.0,ESE,8.1,-,N/A,,Partly Cloudy,120,2013-06-23 07:53:00
4:53 AM,84.0,72.0,67,30.03,10.0,East,8.1,-,N/A,,Partly Cloudy,100,2013-06-23 08:53:00
5:53 AM,84.9,72.0,65,30.04,10.0,ESE,8.1,-,N/A,,Partly Cloudy,110,2013-06-23 09:53:00
6:53 AM,84.0,72.0,67,30.05,10.0,Variable,6.9,-,N/A,,Partly Cloudy,0,2013-06-23 10:53:00
7:20 AM,84.2,73.4,70,30.05,10.0,ESE,8.1,-,N/A,,Mostly Cloudy,120,2013-06-23 11:20:00
7:29 AM,84.2,71.6,66,30.06,10.0,SE,6.9,-,N/A,,Mostly Cloudy,130,2013-06-23 11:29:00
7:53 AM,86.0,72.0,63,30.06,10.0,SE,6.9,-,N/A,,Partly Cloudy,130,2013-06-23 11:53:00
8:53 AM,87.1,73.0,63,30.07,10.0,SE,6.9,-,N/A,,Clear,140,2013-06-23 12:53:00
9:53 AM,87.1,73.0,63,30.08,10.0,SSE,8.1,-,N/A,,Mostly Cloudy,160,2013-06-23 13:53:00
10:53 AM,88.0,73.9,63,30.09,10.0,ESE,8.1,17.3,N/A,,Scattered Clouds,120,2013-06-23 14:53:00
11:53 AM,88.0,71.1,57,30.10,10.0,ESE,9.2,-,N/A,,Clear,110,2013-06-23 15:53:00
12:53 PM,84.0,70.0,63,30.11,10.0,East,6.9,-,N/A,,Partly Cloudy,100,2013-06-23 16:53:00
1:53 PM,87.1,73.0,63,30.10,10.0,Variable,6.9,-,N/A,,Partly Cloudy,0,2013-06-23 17:53:00
2:10 PM,84.2,73.4,70,30.09,10.0,SE,9.2,-,N/A,,Mostly Cloudy,130,2013-06-23 18:10:00
2:33 PM,82.4,75.2,79,30.08,10.0,East,4.6,-,0.04,Rain,Light Rain,90,2013-06-23 18:33:00
2:53 PM,84.0,75.0,74,30.08,10.0,ESE,4.6,-,0.04,,Clear,120,2013-06-23 18:53:00
3:53 PM,86.0,72.0,63,30.07,10.0,Variable,4.6,-,N/A,,Clear,0,2013-06-23 19:53:00
4:53 PM,87.1,72.0,61,30.06,10.0,East,8.1,-,N/A,,Clear,80,2013-06-23 20:53:00
5:53 PM,87.1,71.1,59,30.05,10.0,East,8.1,-,N/A,,Scattered Clouds,90,2013-06-23 21:53:00
6:53 PM,87.1,72.0,61,30.06,10.0,ENE,10.4,-,N/A,,Scattered Clouds,70,2013-06-23 22:53:00
7:53 PM,84.9,71.1,63,30.08,10.0,East,5.8,-,N/A,,Partly Cloudy,80,2013-06-23 23:53:00
8:53 PM,84.9,71.1,63,30.08,10.0,East,5.8,-,N/A,,Scattered Clouds,90,2013-06-24 00:53:00
9:53 PM,84.9,71.1,63,30.08,10.0,East,9.2,-,N/A,,Partly Cloudy,90,2013-06-24 01:53:00
10:53 PM,84.9,70.0,61,30.09,10.0,East,6.9,-,N/A,,Partly Cloudy,90,2013-06-24 02:53:00
11:53 PM,84.9,71.1,63,30.09,10.0,East,8.1,-,N/A,,Partly Cloudy,80,2013-06-24 03:53:00